Time;durP1;ratioP1;P1;durP2;ratioP2;P2;SDS_P1;SDS_P2;PMS_P1;PMS_P2;Temp;Humidity;BMP_temperature;BMP_pressure;BME280_temperature;BME280_humidity;BME280_pressure;Samples;Min_cycle;Max_cycle;Signal;HPM_P1;HPM_P2
2023/05/01 00:02:20;;;;;;;5.93;5.38;;;15.30;99.90;;;;;;5053881;28;20226;-73
2023/05/01 00:04:49;;;;;;;5.88;5.38;;;15.30;99.90;;;;;;5053615;28;20202;-72
2023/05/01 00:07:16;;;;;;;6.93;6.30;;;15.30;99.90;;;;;;5053312;28;20246;-72
2023/05/01 00:09:43;;;;;;;5.80;5.25;;;15.30;99.90;;;;;;5053597;28;20733;-73
2023/05/01 00:12:11;;;;;;;6.05;5.47;;;15.30;99.90;;;;;;5053428;28;20280;-72
2023/05/01 00:14:38;;;;;;;6.00;5.03;;;15.20;99.90;;;;;;5053460;28;20211;-72
2023/05/01 00:17:05;;;;;;;7.65;6.72;;;15.20;99.90;;;;;;5052990;28;20631;-72
2023/05/01 00:19:32;;;;;;;6.82;6.20;;;15.20;99.90;;;;;;5053296;28;20202;-73
2023/05/01 00:22:01;;;;;;;7.05;6.38;;;15.20;99.90;;;;;;5053371;28;20199;-74
2023/05/01 00:24:28;;;;;;;7.25;6.50;;;15.30;99.90;;;;;;5053524;28;20293;-74
2023/05/01 00:26:55;;;;;;;6.28;5.35;;;15.30;99.90;;;;;;5053542;28;20264;-72
2023/05/01 00:29:22;;;;;;;7.28;5.80;;;15.30;99.90;;;;;;5053537;28;20680;-74
2023/05/01 00:31:49;;;;;;;6.88;6.25;;;15.30;99.90;;;;;;5053142;28;20226;-72
2023/05/01 00:34:16;;;;;;;10.50;7.40;;;15.30;99.90;;;;;;5052877;28;20246;-72
2023/05/01 00:36:43;;;;;;;6.22;5.63;;;15.30;99.90;;;;;;5053358;28;20198;-72
2023/05/01 00:39:11;;;;;;;8.38;6.00;;;15.30;99.90;;;;;;5052969;28;20249;-72
2023/05/01 00:41:38;;;;;;;7.78;6.97;;;15.20;99.90;;;;;;5053063;28;20234;-73
2023/05/01 00:44:05;;;;;;;7.40;6.18;;;15.20;99.90;;;;;;5052736;28;20230;-73
2023/05/01 00:46:33;;;;;;;9.30;6.72;;;15.20;99.90;;;;;;5052789;28;20579;-72
2023/05/01 00:49:00;;;;;;;8.10;6.00;;;15.20;99.90;;;;;;5052686;28;20292;-72
2023/05/01 00:51:30;;;;;;;8.50;6.20;;;15.20;99.90;;;;;;5053103;28;20199;-72
2023/05/01 00:53:58;;;;;;;6.85;6.00;;;15.10;99.90;;;;;;5052491;28;20210;-73
2023/05/01 00:56:27;;;;;;;8.23;7.05;;;15.10;99.90;;;;;;5052809;28;20276;-73
2023/05/01 00:58:54;;;;;;;10.48;7.63;;;15.10;99.90;;;;;;5053291;28;20211;-73
2023/05/01 01:01:21;;;;;;;15.70;6.43;;;15.00;99.90;;;;;;5053008;28;20623;-72
2023/05/01 01:03:49;;;;;;;7.75;6.93;;;15.00;99.90;;;;;;5052880;28;20207;-77
2023/05/01 01:06:23;;;;;;;9.63;7.15;;;15.00;99.90;;;;;;5052369;28;20606;-78
2023/05/01 01:08:57;;;;;;;7.75;7.00;;;15.00;99.90;;;;;;5052940;28;20230;-73
2023/05/01 01:11:34;;;;;;;11.02;7.82;;;15.00;99.90;;;;;;5051605;28;20206;-74
2023/05/01 01:14:08;;;;;;;8.40;7.60;;;15.00;99.90;;;;;;5051855;28;20713;-77
2023/05/01 01:16:44;;;;;;;8.50;7.70;;;15.00;99.90;;;;;;5052367;28;20651;-78
2023/05/01 01:19:36;;;;;;;6.75;5.50;;;15.00;99.90;;;;;;5051747;28;20210;-74
2023/05/01 01:22:10;;;;;;;7.53;6.68;;;15.00;99.90;;;;;;5052001;28;20242;-73
2023/05/01 01:24:56;;;;;;;6.60;5.97;;;15.10;99.90;;;;;;5052359;28;20206;-73
2023/05/01 01:27:58;;;;;;;6.95;6.25;;;15.00;99.90;;;;;;5052700;28;20556;-74
2023/05/01 01:31:04;;;;;;;6.50;5.93;;;15.00;99.90;;;;;;5051929;28;20272;-76
2023/05/01 01:34:03;;;;;;;6.72;5.97;;;15.00;99.90;;;;;;5046409;28;20694;-76
2023/05/01 01:36:38;;;;;;;6.65;6.00;;;15.00;99.90;;;;;;5051400;28;20294;-77
2023/05/01 01:39:12;;;;;;;5.35;4.95;;;15.00;99.90;;;;;;5051739;28;20241;-72
2023/05/01 01:41:41;;;;;;;6.47;5.85;;;15.00;99.90;;;;;;5052040;28;20246;-73
2023/05/01 01:44:12;;;;;;;4.68;4.28;;;15.00;99.90;;;;;;5051387;28;20199;-73
2023/05/01 01:46:42;;;;;;;5.82;5.32;;;15.00;99.90;;;;;;5051951;28;20207;-74
2023/05/01 01:49:17;;;;;;;4.20;3.80;;;15.00;99.90;;;;;;5051770;28;20678;-73
2023/05/01 01:51:46;;;;;;;5.18;4.68;;;14.90;99.90;;;;;;5052009;28;20210;-77
2023/05/01 01:54:15;;;;;;;8.25;4.10;;;15.00;99.90;;;;;;5051395;28;20284;-74
2023/05/01 01:56:43;;;;;;;7.18;4.53;;;14.90;99.90;;;;;;5051778;28;20203;-75
2023/05/01 01:59:11;;;;;;;5.43;4.22;;;14.90;99.90;;;;;;5051112;28;20218;-74
2023/05/01 02:01:41;;;;;;;5.25;3.97;;;14.90;99.90;;;;;;5052005;28;20207;-74
2023/05/01 02:04:10;;;;;;;4.85;3.35;;;14.90;99.90;;;;;;5051253;28;20678;-75
2023/05/01 02:06:40;;;;;;;4.30;3.90;;;14.80;99.90;;;;;;5051620;28;20241;-75
2023/05/01 02:09:08;;;;;;;3.90;3.45;;;14.80;99.90;;;;;;5051291;28;20218;-75
2023/05/01 02:11:36;;;;;;;4.65;4.25;;;14.80;99.90;;;;;;5051425;28;20202;-74
2023/05/01 02:14:05;;;;;;;9.55;3.80;;;14.80;99.90;;;;;;5050687;28;20579;-75
2023/05/01 02:16:34;;;;;;;3.97;2.88;;;14.80;99.90;;;;;;5051619;28;20242;-73
2023/05/01 02:19:02;;;;;;;4.53;4.13;;;14.80;99.90;;;;;;5050941;28;20209;-73
2023/05/01 02:21:31;;;;;;;3.83;3.22;;;14.80;99.90;;;;;;5051295;28;20203;-76
2023/05/01 02:24:01;;;;;;;4.50;3.10;;;14.80;99.90;;;;;;5050575;28;20202;-75
2023/05/01 02:26:29;;;;;;;4.05;3.58;;;14.80;99.90;;;;;;5051474;28;20213;-74
2023/05/01 02:28:57;;;;;;;4.28;3.38;;;14.80;99.90;;;;;;5050736;28;20206;-75
2023/05/01 02:31:24;;;;;;;5.03;2.70;;;14.70;99.90;;;;;;5051488;28;20199;-74
2023/05/01 02:33:51;;;;;;;3.88;3.58;;;14.70;99.90;;;;;;5051481;28;20281;-76
2023/05/01 02:36:18;;;;;;;5.30;3.80;;;14.70;99.90;;;;;;5050633;28;20752;-75
2023/05/01 02:38:46;;;;;;;3.55;3.25;;;14.70;99.90;;;;;;5050999;28;20242;-74
2023/05/01 02:41:16;;;;;;;3.80;2.70;;;14.70;99.90;;;;;;5050690;28;20206;-75
2023/05/01 02:43:45;;;;;;;3.13;2.70;;;14.60;99.90;;;;;;5050801;28;20234;-74
2023/05/01 02:46:14;;;;;;;3.35;3.05;;;14.60;99.90;;;;;;5050628;28;20241;-73
2023/05/01 02:48:42;;;;;;;3.10;2.80;;;14.60;99.90;;;;;;5050844;28;20296;-74
2023/05/01 02:51:10;;;;;;;5.20;2.70;;;14.60;99.90;;;;;;5050446;28;20281;-72
2023/05/01 02:53:39;;;;;;;3.20;2.90;;;14.60;99.90;;;;;;5051134;28;20285;-73
2023/05/01 02:56:06;;;;;;;4.85;2.72;;;14.50;99.90;;;;;;5050603;28;20203;-73
2023/05/01 02:58:35;;;;;;;6.20;2.78;;;14.60;99.90;;;;;;5050536;28;20678;-72
2023/05/01 03:01:02;;;;;;;2.80;2.53;;;14.60;99.90;;;;;;5050472;28;20633;-74
2023/05/01 03:03:29;;;;;;;2.38;2.17;;;14.60;99.90;;;;;;5050931;28;20213;-78
2023/05/01 03:05:56;;;;;;;3.08;2.78;;;14.60;99.90;;;;;;5050703;28;20237;-73
2023/05/01 03:08:23;;;;;;;4.85;3.22;;;14.60;99.90;;;;;;5051238;28;20252;-74
2023/05/01 03:10:50;;;;;;;3.08;2.80;;;14.50;99.90;;;;;;5051043;28;20238;-73
2023/05/01 03:13:17;;;;;;;2.55;2.35;;;14.50;99.90;;;;;;5049894;28;20246;-73
2023/05/01 03:15:46;;;;;;;3.35;2.25;;;14.50;99.90;;;;;;5050685;28;20257;-72
2023/05/01 03:18:13;;;;;;;2.75;2.55;;;14.50;99.90;;;;;;5050109;28;20237;-76
2023/05/01 03:20:40;;;;;;;3.33;2.25;;;14.60;99.90;;;;;;5050621;28;20288;-77
2023/05/01 03:23:08;;;;;;;2.00;1.90;;;14.60;99.90;;;;;;5050165;28;20209;-75
2023/05/01 03:25:35;;;;;;;2.95;2.67;;;14.60;99.90;;;;;;5050298;28;20203;-76
2023/05/01 03:28:02;;;;;;;2.72;2.53;;;14.60;99.90;;;;;;5050228;28;20207;-73
2023/05/01 03:30:29;;;;;;;2.60;2.25;;;14.50;99.90;;;;;;5050121;28;20722;-72
2023/05/01 03:32:58;;;;;;;3.60;2.08;;;14.50;99.90;;;;;;5050371;28;20202;-75
2023/05/01 03:35:25;;;;;;;2.38;2.17;;;14.50;99.90;;;;;;5052926;28;20646;-74
2023/05/01 03:37:51;;;;;;;3.60;2.28;;;14.40;99.90;;;;;;5054688;28;20671;-72
2023/05/01 03:40:18;;;;;;;6.18;2.95;;;14.40;99.90;;;;;;5053884;28;20241;-75
2023/05/01 03:42:45;;;;;;;1.95;1.80;;;14.40;99.90;;;;;;5054207;28;20199;-74
2023/05/01 03:45:12;;;;;;;2.30;2.10;;;14.30;99.90;;;;;;5053954;28;20242;-75
2023/05/01 03:47:39;;;;;;;2.45;2.15;;;14.30;99.90;;;;;;5054377;28;20238;-73
2023/05/01 03:50:08;;;;;;;2.65;2.03;;;14.30;99.90;;;;;;5053816;28;20241;-72
2023/05/01 03:52:36;;;;;;;3.28;2.38;;;14.30;99.90;;;;;;5054030;28;20654;-71
2023/05/01 03:55:03;;;;;;;3.05;2.60;;;14.30;99.90;;;;;;5053324;28;20239;-71
2023/05/01 03:57:30;;;;;;;2.42;2.22;;;14.30;99.90;;;;;;5054180;28;20199;-74
2023/05/01 03:59:57;;;;;;;4.00;2.40;;;14.30;99.90;;;;;;5053572;28;20303;-75
2023/05/01 04:02:24;;;;;;;3.85;2.28;;;14.30;99.90;;;;;;5054126;28;20233;-73
2023/05/01 04:04:51;;;;;;;1.85;1.75;;;14.30;99.90;;;;;;5054284;28;20206;-75
2023/05/01 04:07:20;;;;;;;3.60;2.53;;;14.30;99.90;;;;;;5053421;28;20264;-72
2023/05/01 04:09:47;;;;;;;2.35;2.15;;;14.30;99.90;;;;;;5053550;28;20266;-76
2023/05/01 04:12:14;;;;;;;3.70;2.42;;;14.30;99.90;;;;;;5053435;28;20665;-79
2023/05/01 04:14:42;;;;;;;1.88;1.75;;;14.20;99.90;;;;;;5053590;28;20242;-78
2023/05/01 04:17:09;;;;;;;2.38;1.92;;;14.20;99.90;;;;;;5053463;28;20203;-78
2023/05/01 04:19:36;;;;;;;4.63;1.92;;;14.20;99.90;;;;;;5053479;28;20238;-76
2023/05/01 04:22:04;;;;;;;2.83;1.67;;;14.20;99.90;;;;;;5053253;28;20233;-73
2023/05/01 04:24:32;;;;;;;3.05;2.17;;;14.20;99.90;;;;;;5053311;28;20573;-77
2023/05/01 04:26:59;;;;;;;3.30;2.67;;;14.20;99.90;;;;;;5053096;28;20242;-75
2023/05/01 04:29:26;;;;;;;2.10;1.90;;;14.20;99.90;;;;;;5062410;28;20202;-78
2023/05/01 04:31:53;;;;;;;3.00;1.45;;;14.20;99.90;;;;;;5059326;28;20262;-78
2023/05/01 04:34:20;;;;;;;2.38;2.15;;;14.20;99.90;;;;;;5054216;28;20306;-79
2023/05/01 04:36:47;;;;;;;2.95;2.00;;;14.20;99.90;;;;;;5074047;28;20238;-76
2023/05/01 04:39:14;;;;;;;5.40;2.05;;;14.20;99.90;;;;;;5072747;28;20760;-76
2023/05/01 04:41:42;;;;;;;2.60;2.05;;;14.20;99.90;;;;;;5074131;28;20674;-74
2023/05/01 04:44:09;;;;;;;4.60;2.50;;;14.20;99.90;;;;;;5073123;28;20238;-74
2023/05/01 04:46:36;;;;;;;1.88;1.35;;;14.20;99.90;;;;;;5071522;28;20244;-74
2023/05/01 04:49:02;;;;;;;1.77;1.67;;;14.20;99.90;;;;;;5052785;28;20652;-76
2023/05/01 04:51:29;;;;;;;4.07;1.40;;;14.20;99.90;;;;;;5052976;28;20274;-77
2023/05/01 04:53:56;;;;;;;7.22;1.85;;;14.20;99.90;;;;;;5051903;28;20260;-78
2023/05/01 04:56:24;;;;;;;2.35;1.45;;;14.20;99.90;;;;;;5053325;28;20226;-76
2023/05/01 04:58:53;;;;;;;1.35;1.25;;;14.10;99.90;;;;;;5052705;28;20682;-76
2023/05/01 05:01:19;;;;;;;1.60;1.50;;;14.20;99.90;;;;;;5052750;28;20242;-77
2023/05/01 05:03:46;;;;;;;2.85;1.50;;;14.20;99.90;;;;;;5055950;28;20639;-73
2023/05/01 05:06:13;;;;;;;2.45;1.30;;;14.20;99.90;;;;;;5071440;28;20230;-76
2023/05/01 05:08:41;;;;;;;2.20;1.35;;;14.30;99.90;;;;;;5072271;28;20206;-75
2023/05/01 05:11:07;;;;;;;2.30;1.67;;;14.30;99.90;;;;;;5071870;28;20233;-74
2023/05/01 05:13:34;;;;;;;1.27;1.17;;;14.20;99.90;;;;;;5072536;28;20217;-74
2023/05/01 05:16:03;;;;;;;1.63;1.27;;;14.20;99.90;;;;;;5072036;28;20233;-71
2023/05/01 05:18:30;;;;;;;1.75;1.65;;;14.20;99.90;;;;;;5072486;28;20279;-72
2023/05/01 05:20:56;;;;;;;3.38;1.60;;;14.30;99.90;;;;;;5071837;28;20248;-72
2023/05/01 05:23:23;;;;;;;1.88;1.73;;;14.40;99.90;;;;;;5068223;28;20238;-72
2023/05/01 05:25:50;;;;;;;1.00;0.80;;;14.30;99.90;;;;;;5052778;28;20238;-71
2023/05/01 05:28:17;;;;;;;6.10;1.90;;;14.30;99.90;;;;;;5051986;28;20294;-70
2023/05/01 05:30:45;;;;;;;1.20;1.10;;;14.20;99.90;;;;;;5052054;28;20257;-70
2023/05/01 05:33:14;;;;;;;1.38;1.20;;;14.30;99.90;;;;;;5051730;28;20328;-71
2023/05/01 05:35:41;;;;;;;1.30;1.20;;;14.20;99.90;;;;;;5051855;28;20698;-71
2023/05/01 05:38:07;;;;;;;1.60;1.35;;;14.20;99.90;;;;;;5051599;28;20238;-71
2023/05/01 05:40:35;;;;;;;1.77;0.80;;;14.20;99.90;;;;;;5051935;28;20243;-71
2023/05/01 05:43:02;;;;;;;1.33;1.23;;;14.20;99.90;;;;;;5051633;28;20298;-72
2023/05/01 05:45:29;;;;;;;1.35;1.25;;;14.10;99.90;;;;;;5051822;28;20243;-71
2023/05/01 05:47:56;;;;;;;1.13;0.65;;;14.20;99.90;;;;;;5051575;28;20662;-71
2023/05/01 05:50:24;;;;;;;0.75;0.60;;;14.20;99.90;;;;;;5052046;28;20608;-71
2023/05/01 05:52:51;;;;;;;1.73;0.82;;;14.10;99.90;;;;;;5052311;28;20230;-71
2023/05/01 05:55:18;;;;;;;1.20;0.88;;;14.10;99.90;;;;;;5051270;28;20247;-72
2023/05/01 05:57:45;;;;;;;16.55;13.43;;;14.10;99.90;;;;;;5051171;28;20284;-73
2023/05/01 06:00:13;;;;;;;3.17;1.60;;;14.00;99.90;;;;;;5068112;28;20233;-73
2023/05/01 06:02:40;;;;;;;1.00;0.80;;;14.10;99.90;;;;;;5071383;28;20296;-72
2023/05/01 06:05:09;;;;;;;1.10;0.88;;;14.10;99.90;;;;;;5071192;28;20233;-74
2023/05/01 06:07:38;;;;;;;1.02;0.90;;;14.10;99.90;;;;;;5071452;28;20202;-73
2023/05/01 06:10:06;;;;;;;0.88;0.88;;;14.20;99.90;;;;;;5071133;28;20319;-72
2023/05/01 06:12:33;;;;;;;0.63;0.60;;;14.10;99.90;;;;;;5071452;28;20241;-72
2023/05/01 06:15:00;;;;;;;0.50;0.50;;;14.10;99.90;;;;;;5062091;28;20246;-70
2023/05/01 06:17:27;;;;;;;0.50;0.43;;;14.00;99.90;;;;;;5062864;28;20697;-70
2023/05/01 06:19:54;;;;;;;0.70;0.70;;;14.10;99.90;;;;;;5071224;28;20237;-70
2023/05/01 06:22:21;;;;;;;1.27;0.45;;;14.10;99.90;;;;;;5071544;28;20662;-70
2023/05/01 06:24:49;;;;;;;0.50;0.50;;;14.10;99.90;;;;;;5071074;28;20686;-71
2023/05/01 06:27:16;;;;;;;1.15;0.50;;;14.10;99.90;;;;;;5070901;28;20248;-69
2023/05/01 06:29:43;;;;;;;0.77;0.77;;;14.10;99.90;;;;;;5056737;28;20234;-73
2023/05/01 06:32:10;;;;;;;1.17;1.08;;;14.10;99.90;;;;;;5070794;28;20234;-71
2023/05/01 06:34:37;;;;;;;0.75;0.60;;;14.10;99.90;;;;;;5062654;28;20241;-73
2023/05/01 06:37:06;;;;;;;2.10;0.63;;;14.30;99.90;;;;;;5050445;28;20683;-72
2023/05/01 06:39:33;;;;;;;4.32;1.05;;;14.40;99.90;;;;;;5050950;28;20291;-71
2023/05/01 06:42:02;;;;;;;2.22;0.70;;;14.60;99.90;;;;;;5050598;28;20203;-71
2023/05/01 06:44:29;;;;;;;3.13;0.95;;;14.70;99.90;;;;;;5050965;28;20220;-72
2023/05/01 06:46:57;;;;;;;2.53;1.38;;;14.80;99.90;;;;;;5059629;28;20233;-70
2023/05/01 06:49:24;;;;;;;0.85;0.50;;;14.90;99.90;;;;;;5070414;28;20230;-70
2023/05/01 06:51:51;;;;;;;1.08;0.60;;;15.10;99.90;;;;;;5070895;28;20229;-71
2023/05/01 06:54:18;;;;;;;7.53;1.15;;;15.10;99.90;;;;;;5070268;28;20701;-71
2023/05/01 06:56:45;;;;;;;1.08;0.70;;;15.10;99.90;;;;;;5070702;28;20210;-73
2023/05/01 06:59:13;;;;;;;1.20;0.55;;;15.00;99.90;;;;;;5070013;28;20234;-72
2023/05/01 07:01:40;;;;;;;1.80;0.85;;;14.90;99.90;;;;;;5070502;28;20678;-71
2023/05/01 07:04:07;;;;;;;1.77;0.80;;;14.90;99.90;;;;;;5069028;28;20474;-70
2023/05/01 07:06:34;;;;;;;2.42;0.90;;;14.90;99.90;;;;;;5070658;28;20237;-71
2023/05/01 07:09:01;;;;;;;0.82;0.70;;;17.00;99.90;;;;;;5070471;28;20291;-71
2023/05/01 07:11:28;;;;;;;1.55;0.70;;;14.70;99.90;;;;;;5074684;28;20233;-72
2023/05/01 07:13:55;;;;;;;2.65;0.73;;;14.70;99.90;;;;;;5074866;28;20241;-72
2023/05/01 07:16:24;;;;;;;6.18;1.15;;;14.70;99.90;;;;;;5069542;28;20239;-71
2023/05/01 07:18:50;;;;;;;2.72;0.80;;;14.70;99.90;;;;;;5065441;28;20238;-71
2023/05/01 07:21:17;;;;;;;0.70;0.70;;;14.60;99.90;;;;;;5054193;28;20648;-69
2023/05/01 07:23:45;;;;;;;1.02;0.80;;;14.70;99.90;;;;;;5066898;28;20233;-70
2023/05/01 07:26:12;;;;;;;2.25;1.40;;;14.60;99.90;;;;;;5062132;28;20213;-67
2023/05/01 07:28:40;;;;;;;0.80;0.80;;;14.70;99.90;;;;;;5071626;28;20211;-66
2023/05/01 07:31:09;;;;;;;1.80;0.98;;;15.00;99.90;;;;;;5054163;28;20234;-67
2023/05/01 07:33:37;;;;;;;2.75;0.70;;;15.00;99.90;;;;;;5054279;28;20677;-68
2023/05/01 07:36:05;;;;;;;3.83;1.15;;;15.10;99.90;;;;;;5065049;28;20229;-69
2023/05/01 07:38:32;;;;;;;1.75;1.02;;;15.50;99.90;;;;;;5054590;28;20662;-69
2023/05/01 07:40:59;;;;;;;1.35;0.55;;;15.80;99.90;;;;;;5062731;28;20202;-69
2023/05/01 07:43:26;;;;;;;2.80;0.60;;;16.00;99.90;;;;;;5074155;28;20217;-69
2023/05/01 07:45:57;;;;;;;0.65;0.65;;;16.00;99.90;;;;;;5074349;28;20685;-71
2023/05/01 07:48:24;;;;;;;2.92;0.60;;;16.00;99.90;;;;;;5073745;28;20202;-72
2023/05/01 07:50:53;;;;;;;0.50;0.50;;;15.90;99.90;;;;;;5074265;28;20644;-74
2023/05/01 07:53:21;;;;;;;2.05;0.75;;;15.80;99.90;;;;;;5062716;28;20238;-72
2023/05/01 07:55:48;;;;;;;2.47;1.33;;;15.70;99.90;;;;;;5072676;28;20210;-73
2023/05/01 07:58:16;;;;;;;0.75;0.60;;;15.70;99.90;;;;;;5073048;28;20264;-73
2023/05/01 08:00:44;;;;;;;0.77;0.60;;;15.90;99.90;;;;;;5073909;28;20267;-73
2023/05/01 08:03:11;;;;;;;0.93;0.60;;;16.00;99.90;;;;;;5073367;28;20234;-73
2023/05/01 08:05:40;;;;;;;2.53;0.75;;;15.50;99.90;;;;;;5073847;28;20206;-72
2023/05/01 08:08:08;;;;;;;0.80;0.63;;;15.50;99.90;;;;;;5073662;28;20241;-71
2023/05/01 08:10:35;;;;;;;5.43;0.80;;;15.40;99.90;;;;;;5073664;28;20292;-73
2023/05/01 08:13:02;;;;;;;1.00;0.93;;;15.40;99.90;;;;;;5073233;28;20269;-72
2023/05/01 08:15:29;;;;;;;1.63;0.38;;;15.70;99.90;;;;;;5073376;28;20246;-73
2023/05/01 08:17:56;;;;;;;0.50;0.50;;;15.80;99.90;;;;;;5073338;28;20249;-72
2023/05/01 08:20:23;;;;;;;1.38;0.82;;;15.20;99.90;;;;;;5068527;28;20311;-72
2023/05/01 08:22:50;;;;;;;0.65;0.50;;;15.30;99.90;;;;;;5074111;28;20237;-73
2023/05/01 08:25:18;;;;;;;2.05;0.68;;;15.20;99.90;;;;;;5073187;28;20234;-71
2023/05/01 08:27:45;;;;;;;0.63;0.50;;;15.20;99.90;;;;;;5073564;28;20268;-72
2023/05/01 08:30:12;;;;;;;0.75;0.57;;;15.20;99.90;;;;;;5072757;28;20647;-71
2023/05/01 08:32:39;;;;;;;0.50;0.50;;;15.30;99.90;;;;;;5073221;28;20320;-71
2023/05/01 08:35:07;;;;;;;0.60;0.40;;;15.40;99.90;;;;;;5073302;28;20236;-72
2023/05/01 08:37:34;;;;;;;0.70;0.68;;;15.40;99.90;;;;;;5073532;28;20648;-72
2023/05/01 08:40:07;;;;;;;3.88;0.98;;;15.50;99.90;;;;;;5072936;28;20209;-71
2023/05/01 08:42:36;;;;;;;1.02;0.60;;;15.50;99.90;;;;;;5073111;28;20678;-72
2023/05/01 08:45:04;;;;;;;0.60;0.40;;;15.40;99.90;;;;;;5072515;28;20205;-72
2023/05/01 08:47:31;;;;;;;0.55;0.55;;;15.40;99.90;;;;;;5073093;28;20202;-71
2023/05/01 08:50:00;;;;;;;0.70;0.70;;;15.50;99.90;;;;;;5072891;28;20634;-72
2023/05/01 08:52:30;;;;;;;3.17;1.05;;;15.60;99.90;;;;;;5072906;28;20269;-73
2023/05/01 08:55:00;;;;;;;0.75;0.50;;;15.70;99.90;;;;;;5072500;28;20238;-72
2023/05/01 08:57:28;;;;;;;1.63;0.40;;;15.80;99.90;;;;;;5073022;28;20239;-72
2023/05/01 08:59:57;;;;;;;0.70;0.50;;;16.00;99.90;;;;;;5072552;28;20209;-72
2023/05/01 09:02:26;;;;;;;0.65;0.65;;;16.20;99.90;;;;;;5064740;28;20214;-71
2023/05/01 09:04:54;;;;;;;0.60;0.60;;;16.50;99.90;;;;;;5053029;28;20671;-71
2023/05/01 09:07:21;;;;;;;1.25;0.50;;;16.50;99.90;;;;;;5053038;28;20260;-71
2023/05/01 09:09:48;;;;;;;1.27;0.50;;;16.70;99.90;;;;;;5052743;28;20248;-72
2023/05/01 09:12:22;;;;;;;0.75;0.30;;;16.80;99.90;;;;;;5052116;28;20270;-72
2023/05/01 09:14:49;;;;;;;0.70;0.52;;;16.40;99.90;;;;;;5052262;28;20211;-72
2023/05/01 09:17:17;;;;;;;0.40;0.40;;;15.90;99.90;;;;;;5052406;28;20544;-72
2023/05/01 09:19:44;;;;;;;0.45;0.45;;;15.70;99.90;;;;;;5052601;28;20203;-70
2023/05/01 09:22:11;;;;;;;0.60;0.60;;;15.50;99.90;;;;;;5052174;28;20206;-73
2023/05/01 09:24:38;;;;;;;0.63;0.63;;;15.50;99.90;;;;;;5052249;28;20631;-71
2023/05/01 09:27:06;;;;;;;0.88;0.70;;;15.50;99.90;;;;;;5052281;28;20210;-71
2023/05/01 09:29:40;;;;;;;0.38;0.38;;;15.60;99.90;;;;;;5052295;28;20199;-71
2023/05/01 09:32:14;;;;;;;0.70;0.70;;;15.50;99.90;;;;;;5051082;28;20269;-72
2023/05/01 09:34:43;;;;;;;0.93;0.50;;;15.50;99.90;;;;;;5052212;28;20748;-71
2023/05/01 09:37:13;;;;;;;0.40;0.40;;;15.50;99.90;;;;;;5051525;28;20659;-71
2023/05/01 09:39:40;;;;;;;1.80;0.68;;;15.50;99.90;;;;;;5052427;28;20210;-71
2023/05/01 09:42:07;;;;;;;1.08;0.40;;;15.40;99.90;;;;;;5051663;28;20753;-72
2023/05/01 09:44:42;;;;;;;2.92;0.90;;;15.40;99.90;;;;;;5051928;28;20241;-72
2023/05/01 09:47:09;;;;;;;0.50;0.47;;;15.50;99.90;;;;;;5051606;28;20218;-71
2023/05/01 09:49:48;;;;;;;0.35;0.35;;;15.60;99.90;;;;;;5051890;28;20293;-70
2023/05/01 09:52:15;;;;;;;1.08;0.65;;;15.80;99.90;;;;;;5051678;28;20321;-71
2023/05/01 09:54:43;;;;;;;0.40;0.40;;;15.90;99.90;;;;;;5051990;28;20202;-71
2023/05/01 09:57:10;;;;;;;0.75;0.40;;;16.20;99.90;;;;;;5051286;28;20246;-71
2023/05/01 09:59:37;;;;;;;0.50;0.40;;;16.50;99.90;;;;;;5051763;28;20234;-70
2023/05/01 10:02:04;;;;;;;0.55;0.55;;;16.40;99.90;;;;;;5051305;28;20210;-71
2023/05/01 10:04:32;;;;;;;0.98;0.52;;;16.50;99.90;;;;;;5051654;28;20202;-72
2023/05/01 10:07:12;;;;;;;0.80;0.30;;;16.50;99.90;;;;;;5051477;28;20253;-71
2023/05/01 10:09:40;;;;;;;0.73;0.60;;;16.50;99.90;;;;;;5051441;28;20567;-71
2023/05/01 10:12:07;;;;;;;0.40;0.40;;;16.40;99.90;;;;;;5050858;28;20272;-73
2023/05/01 10:14:37;;;;;;;0.57;0.40;;;16.30;99.90;;;;;;5051248;28;20246;-72
2023/05/01 10:17:18;;;;;;;3.08;1.05;;;16.30;99.90;;;;;;5051048;28;20618;-72
2023/05/01 10:19:45;;;;;;;0.65;0.40;;;16.40;99.90;;;;;;5051187;28;20293;-71
2023/05/01 10:22:15;;;;;;;0.60;0.32;;;16.50;99.90;;;;;;5050977;28;20667;-72
2023/05/01 10:24:44;;;;;;;0.85;0.47;;;16.60;99.90;;;;;;5051017;28;20634;-71
2023/05/01 10:27:12;;;;;;;0.55;0.55;;;17.00;99.90;;;;;;5050631;28;20206;-71
2023/05/01 10:29:40;;;;;;;0.52;0.50;;;17.20;99.90;;;;;;5051413;28;20202;-72
2023/05/01 10:32:09;;;;;;;2.35;1.15;;;17.20;99.90;;;;;;5050672;28;20235;-73
2023/05/01 10:34:42;;;;;;;0.65;0.60;;;17.10;99.90;;;;;;5051146;28;20234;-72
2023/05/01 10:37:13;;;;;;;0.85;0.80;;;17.10;99.90;;;;;;5050598;28;20242;-72
2023/05/01 10:39:42;;;;;;;0.93;0.70;;;17.20;99.90;;;;;;5050958;28;20721;-72
2023/05/01 10:42:13;;;;;;;1.42;0.60;;;17.30;99.90;;;;;;5050407;28;20242;-71
2023/05/01 10:44:41;;;;;;;1.50;0.60;;;17.40;99.90;;;;;;5050839;28;20210;-73
2023/05/01 10:47:44;;;;;;;0.80;0.80;;;17.60;99.90;;;;;;5050489;28;20245;-71
2023/05/01 10:50:14;;;;;;;1.55;0.60;;;18.20;99.90;;;;;;5049617;28;20682;-73
2023/05/01 10:53:18;;;;;;;0.82;0.70;;;18.10;99.90;;;;;;5052179;28;20321;-71
2023/05/01 10:55:48;;;;;;;0.70;0.60;;;17.50;99.90;;;;;;5058893;28;20244;-69
2023/05/01 10:58:53;;;;;;;0.50;0.50;;;17.50;99.90;;;;;;5070403;28;20264;-72
2023/05/01 11:01:31;;;;;;;0.85;0.85;;;17.50;99.90;;;;;;5066746;28;20681;-71
2023/05/01 11:03:58;;;;;;;1.75;0.80;;;17.60;99.90;;;;;;5069672;28;20233;-71
2023/05/01 11:06:26;;;;;;;1.00;0.70;;;17.50;99.90;;;;;;5058137;28;20238;-76
2023/05/01 11:08:53;;;;;;;1.35;0.93;;;17.40;99.90;;;;;;5065051;28;20263;-73
2023/05/01 11:11:50;;;;;;;2.75;1.60;;;17.50;99.90;;;;;;5056954;28;20224;-72
2023/05/01 11:14:17;;;;;;;2.22;0.88;;;17.90;99.90;;;;;;5050553;28;20218;-73
2023/05/01 11:16:48;;;;;;;0.88;0.60;;;18.20;99.90;;;;;;5050568;28;21205;-71
2023/05/01 11:19:51;;;;;;;0.50;0.40;;;18.10;99.90;;;;;;5050284;28;20286;-71
2023/05/01 11:22:18;;;;;;;0.50;0.50;;;18.20;99.90;;;;;;5050270;28;20272;-73
2023/05/01 11:24:45;;;;;;;0.70;0.55;;;18.10;99.90;;;;;;5050457;28;20206;-74
2023/05/01 11:27:17;;;;;;;0.63;0.45;;;18.00;99.90;;;;;;5050305;28;20268;-73
2023/05/01 11:29:48;;;;;;;0.22;0.22;;;18.20;99.90;;;;;;5050523;28;20208;-73
2023/05/01 11:32:22;;;;;;;0.57;0.57;;;18.30;99.90;;;;;;5049826;28;20245;-73
2023/05/01 11:34:51;;;;;;;0.82;0.60;;;18.50;99.90;;;;;;5054440;28;20285;-74
2023/05/01 11:37:18;;;;;;;0.98;0.50;;;18.40;99.90;;;;;;5059055;28;20218;-72
2023/05/01 11:39:51;;;;;;;1.17;0.50;;;18.40;99.90;;;;;;5062715;28;20673;-73
2023/05/01 11:42:22;;;;;;;1.13;0.80;;;18.40;99.90;;;;;;5053319;28;20302;-71
2023/05/01 11:45:09;;;;;;;0.52;0.52;;;18.30;99.90;;;;;;5050267;28;20583;-73
2023/05/01 11:47:37;;;;;;;0.75;0.50;;;18.60;99.90;;;;;;5054312;28;20199;-72
2023/05/01 11:50:04;;;;;;;0.55;0.55;;;18.70;99.90;;;;;;5069834;28;20643;-70
2023/05/01 11:52:42;;;;;;;0.60;0.60;;;18.40;99.90;;;;;;5069938;28;20262;-72
2023/05/01 11:55:10;;;;;;;0.55;0.55;;;18.20;99.90;;;;;;5069983;28;20202;-71
2023/05/01 11:57:50;;;;;;;1.10;0.80;;;18.10;99.90;;;;;;5064506;28;20210;-70
2023/05/01 12:00:26;;;;;;;0.80;0.80;;;17.80;99.90;;;;;;5064238;28;20202;-72
2023/05/01 12:03:01;;;;;;;0.60;0.60;;;17.70;99.90;;;;;;5054131;28;20642;-74
2023/05/01 12:05:30;;;;;;;0.60;0.60;;;17.60;99.90;;;;;;5053958;28;20237;-68
2023/05/01 12:08:10;;;;;;;0.73;0.60;;;17.50;99.90;;;;;;5053382;28;20242;-74
2023/05/01 12:10:39;;;;;;;0.50;0.50;;;17.70;99.90;;;;;;5053607;28;20212;-75
2023/05/01 12:13:08;;;;;;;4.00;0.70;;;18.10;99.90;;;;;;5053056;28;20261;-76
2023/05/01 12:15:37;;;;;;;0.63;0.63;;;18.40;99.90;;;;;;5053635;28;20697;-72
2023/05/01 12:18:04;;;;;;;0.68;0.57;;;18.70;99.90;;;;;;5053333;28;20571;-72
2023/05/01 12:20:36;;;;;;;1.60;0.70;;;18.90;99.90;;;;;;5053906;28;20213;-69
2023/05/01 12:23:04;;;;;;;0.98;0.98;;;19.00;99.90;;;;;;5053075;28;20298;-71
2023/05/01 12:25:32;;;;;;;1.52;0.63;;;19.60;99.90;;;;;;5053535;28;20199;-71
2023/05/01 12:28:00;;;;;;;1.02;0.90;;;19.80;99.90;;;;;;5053083;28;20301;-72
2023/05/01 12:30:29;;;;;;;0.70;0.68;;;19.80;99.90;;;;;;5053713;28;20286;-72
2023/05/01 12:32:57;;;;;;;0.75;0.75;;;19.70;99.90;;;;;;5052906;28;20230;-72
2023/05/01 12:35:30;;;;;;;2.22;0.80;;;19.90;99.90;;;;;;5053739;28;20210;-75
2023/05/01 12:37:58;;;;;;;1.23;0.80;;;19.90;99.90;;;;;;5052783;28;20202;-75
2023/05/01 12:40:26;;;;;;;0.80;0.80;;;19.40;99.90;;;;;;5053180;28;20309;-73
2023/05/01 12:42:57;;;;;;;1.38;0.93;;;19.30;99.90;;;;;;5053521;28;20231;-72
2023/05/01 12:45:25;;;;;;;2.47;1.10;;;19.60;99.90;;;;;;5053376;28;20206;-71
2023/05/01 12:47:53;;;;;;;0.50;0.50;;;19.50;99.90;;;;;;5053508;28;20237;-69
2023/05/01 12:50:20;;;;;;;1.00;0.80;;;19.40;99.90;;;;;;5053102;28;20238;-72
2023/05/01 12:52:49;;;;;;;1.67;1.17;;;19.30;99.90;;;;;;5052718;28;20310;-73
2023/05/01 12:55:16;;;;;;;0.50;0.50;;;19.30;99.90;;;;;;5055837;28;20213;-72
2023/05/01 12:57:53;;;;;;;0.55;0.55;;;;;;;;;;5053178;28;20280;-76
2023/05/01 13:00:21;;;;;;;2.00;0.50;;;19.40;99.90;;;;;;5063193;28;20221;-71